sensor_id;sensor_type;location;lat;lon;timestamp;P1;durP1;ratioP1;P2;durP2;ratioP2
17983;SDS011;9117;52.420;20.728;2022-12-07T00:01:22;54.60;;;24.87;;
17983;SDS011;9117;52.420;20.728;2022-12-07T00:03:53;51.27;;;23.33;;
17983;SDS011;9117;52.420;20.728;2022-12-07T00:06:23;54.03;;;21.77;;
17983;SDS011;9117;52.420;20.728;2022-12-07T00:08:51;47.23;;;19.87;;
17983;SDS011;9117;52.420;20.728;2022-12-07T00:11:20;42.13;;;18.83;;
17983;SDS011;9117;52.420;20.728;2022-12-07T00:13:51;43.03;;;18.87;;
17983;SDS011;9117;52.420;20.728;2022-12-07T00:16:20;39.33;;;18.23;;
17983;SDS011;9117;52.420;20.728;2022-12-07T00:18:50;42.40;;;18.27;;
17983;SDS011;9117;52.420;20.728;2022-12-07T00:21:20;37.37;;;17.23;;
17983;SDS011;9117;52.420;20.728;2022-12-07T00:23:49;44.10;;;17.93;;
17983;SDS011;9117;52.420;20.728;2022-12-07T00:26:19;46.17;;;18.40;;
17983;SDS011;9117;52.420;20.728;2022-12-07T00:28:49;41.80;;;17.67;;
17983;SDS011;9117;52.420;20.728;2022-12-07T00:31:19;51.67;;;17.97;;
17983;SDS011;9117;52.420;20.728;2022-12-07T00:33:49;55.33;;;18.87;;
17983;SDS011;9117;52.420;20.728;2022-12-07T00:36:18;42.83;;;18.27;;
17983;SDS011;9117;52.420;20.728;2022-12-07T00:38:53;49.83;;;18.77;;
17983;SDS011;9117;52.420;20.728;2022-12-07T00:41:22;51.50;;;18.80;;
17983;SDS011;9117;52.420;20.728;2022-12-07T00:43:51;56.53;;;20.20;;
17983;SDS011;9117;52.420;20.728;2022-12-07T00:46:20;50.70;;;19.20;;
17983;SDS011;9117;52.420;20.728;2022-12-07T00:48:49;55.30;;;21.03;;
17983;SDS011;9117;52.420;20.728;2022-12-07T00:51:18;54.93;;;20.20;;
17983;SDS011;9117;52.420;20.728;2022-12-07T00:53:49;51.43;;;20.07;;
17983;SDS011;9117;52.420;20.728;2022-12-07T00:56:18;52.20;;;19.67;;
17983;SDS011;9117;52.420;20.728;2022-12-07T00:58:50;60.97;;;19.47;;
17983;SDS011;9117;52.420;20.728;2022-12-07T01:01:19;53.70;;;18.93;;
17983;SDS011;9117;52.420;20.728;2022-12-07T01:03:48;65.13;;;19.77;;
17983;SDS011;9117;52.420;20.728;2022-12-07T01:06:16;53.90;;;20.77;;
17983;SDS011;9117;52.420;20.728;2022-12-07T01:08:47;56.13;;;20.43;;
17983;SDS011;9117;52.420;20.728;2022-12-07T01:11:17;60.20;;;19.77;;
17983;SDS011;9117;52.420;20.728;2022-12-07T01:13:48;69.90;;;20.80;;
17983;SDS011;9117;52.420;20.728;2022-12-07T01:16:18;50.13;;;19.07;;
17983;SDS011;9117;52.420;20.728;2022-12-07T01:18:47;72.63;;;20.70;;
17983;SDS011;9117;52.420;20.728;2022-12-07T01:21:16;58.27;;;20.63;;
17983;SDS011;9117;52.420;20.728;2022-12-07T01:23:48;69.57;;;22.60;;
17983;SDS011;9117;52.420;20.728;2022-12-07T01:26:18;60.03;;;20.20;;
17983;SDS011;9117;52.420;20.728;2022-12-07T01:28:47;67.67;;;21.90;;
17983;SDS011;9117;52.420;20.728;2022-12-07T01:31:17;59.57;;;22.40;;
17983;SDS011;9117;52.420;20.728;2022-12-07T01:33:48;76.80;;;24.13;;
17983;SDS011;9117;52.420;20.728;2022-12-07T01:36:18;65.00;;;23.33;;
17983;SDS011;9117;52.420;20.728;2022-12-07T01:38:48;68.13;;;23.77;;
17983;SDS011;9117;52.420;20.728;2022-12-07T01:41:19;71.33;;;23.93;;
17983;SDS011;9117;52.420;20.728;2022-12-07T01:44:10;62.40;;;23.60;;
17983;SDS011;9117;52.420;20.728;2022-12-07T01:46:48;62.73;;;23.57;;
17983;SDS011;9117;52.420;20.728;2022-12-07T01:49:18;69.97;;;24.57;;
17983;SDS011;9117;52.420;20.728;2022-12-07T01:51:52;52.37;;;21.57;;
17983;SDS011;9117;52.420;20.728;2022-12-07T01:54:26;61.60;;;23.73;;
17983;SDS011;9117;52.420;20.728;2022-12-07T01:56:55;71.07;;;24.40;;
17983;SDS011;9117;52.420;20.728;2022-12-07T01:59:25;61.03;;;24.17;;
17983;SDS011;9117;52.420;20.728;2022-12-07T02:01:54;74.37;;;25.40;;
17983;SDS011;9117;52.420;20.728;2022-12-07T02:04:23;66.00;;;24.90;;
17983;SDS011;9117;52.420;20.728;2022-12-07T02:06:51;60.10;;;22.70;;
17983;SDS011;9117;52.420;20.728;2022-12-07T02:09:21;55.33;;;21.67;;
17983;SDS011;9117;52.420;20.728;2022-12-07T02:11:50;53.70;;;20.90;;
17983;SDS011;9117;52.420;20.728;2022-12-07T02:14:20;54.90;;;21.90;;
17983;SDS011;9117;52.420;20.728;2022-12-07T02:16:52;53.23;;;21.77;;
17983;SDS011;9117;52.420;20.728;2022-12-07T02:19:35;52.97;;;22.40;;
17983;SDS011;9117;52.420;20.728;2022-12-07T02:22:33;46.13;;;19.17;;
17983;SDS011;9117;52.420;20.728;2022-12-07T02:25:22;48.13;;;19.83;;
17983;SDS011;9117;52.420;20.728;2022-12-07T02:28:03;40.67;;;18.60;;
17983;SDS011;9117;52.420;20.728;2022-12-07T02:30:35;41.03;;;18.47;;
17983;SDS011;9117;52.420;20.728;2022-12-07T02:33:14;36.90;;;17.07;;
17983;SDS011;9117;52.420;20.728;2022-12-07T02:35:48;34.23;;;15.33;;
17983;SDS011;9117;52.420;20.728;2022-12-07T02:38:24;34.27;;;15.47;;
17983;SDS011;9117;52.420;20.728;2022-12-07T02:40:57;34.93;;;14.73;;
17983;SDS011;9117;52.420;20.728;2022-12-07T02:43:33;32.17;;;15.00;;
17983;SDS011;9117;52.420;20.728;2022-12-07T02:46:06;33.47;;;16.20;;
17983;SDS011;9117;52.420;20.728;2022-12-07T02:48:38;31.37;;;14.00;;
17983;SDS011;9117;52.420;20.728;2022-12-07T02:51:08;32.43;;;13.20;;
17983;SDS011;9117;52.420;20.728;2022-12-07T02:53:37;28.70;;;12.67;;
17983;SDS011;9117;52.420;20.728;2022-12-07T02:56:07;31.70;;;13.20;;
17983;SDS011;9117;52.420;20.728;2022-12-07T02:58:43;26.97;;;13.90;;
17983;SDS011;9117;52.420;20.728;2022-12-07T03:01:22;28.20;;;12.37;;
17983;SDS011;9117;52.420;20.728;2022-12-07T03:03:58;27.63;;;12.17;;
17983;SDS011;9117;52.420;20.728;2022-12-07T03:06:31;26.63;;;13.20;;
17983;SDS011;9117;52.420;20.728;2022-12-07T03:09:08;27.93;;;13.37;;
17983;SDS011;9117;52.420;20.728;2022-12-07T03:11:45;28.97;;;13.43;;
17983;SDS011;9117;52.420;20.728;2022-12-07T03:14:18;27.47;;;12.37;;
17983;SDS011;9117;52.420;20.728;2022-12-07T03:16:55;33.00;;;14.00;;
17983;SDS011;9117;52.420;20.728;2022-12-07T03:19:28;26.77;;;13.23;;
17983;SDS011;9117;52.420;20.728;2022-12-07T03:22:01;31.63;;;13.83;;
17983;SDS011;9117;52.420;20.728;2022-12-07T03:24:33;30.80;;;13.80;;
17983;SDS011;9117;52.420;20.728;2022-12-07T03:27:06;32.60;;;14.13;;
17983;SDS011;9117;52.420;20.728;2022-12-07T03:29:36;36.43;;;14.03;;
17983;SDS011;9117;52.420;20.728;2022-12-07T03:32:10;33.90;;;13.43;;
17983;SDS011;9117;52.420;20.728;2022-12-07T03:34:45;37.53;;;17.17;;
17983;SDS011;9117;52.420;20.728;2022-12-07T03:37:17;36.23;;;15.07;;
17983;SDS011;9117;52.420;20.728;2022-12-07T03:39:53;35.27;;;14.87;;
17983;SDS011;9117;52.420;20.728;2022-12-07T03:42:26;31.93;;;14.47;;
17983;SDS011;9117;52.420;20.728;2022-12-07T03:44:54;26.80;;;13.27;;
17983;SDS011;9117;52.420;20.728;2022-12-07T03:47:26;30.47;;;13.13;;
17983;SDS011;9117;52.420;20.728;2022-12-07T03:49:59;26.37;;;12.17;;
17983;SDS011;9117;52.420;20.728;2022-12-07T03:52:33;27.87;;;12.83;;
17983;SDS011;9117;52.420;20.728;2022-12-07T03:55:08;28.07;;;11.93;;
17983;SDS011;9117;52.420;20.728;2022-12-07T03:57:41;27.33;;;11.20;;
17983;SDS011;9117;52.420;20.728;2022-12-07T04:00:12;26.47;;;12.27;;
17983;SDS011;9117;52.420;20.728;2022-12-07T04:02:43;27.37;;;12.43;;
17983;SDS011;9117;52.420;20.728;2022-12-07T04:05:11;26.17;;;12.50;;
17983;SDS011;9117;52.420;20.728;2022-12-07T04:07:39;30.10;;;13.73;;
17983;SDS011;9117;52.420;20.728;2022-12-07T04:10:09;27.03;;;11.60;;
17983;SDS011;9117;52.420;20.728;2022-12-07T04:12:37;25.93;;;12.80;;
17983;SDS011;9117;52.420;20.728;2022-12-07T04:15:06;28.83;;;12.97;;
17983;SDS011;9117;52.420;20.728;2022-12-07T04:17:35;28.10;;;11.60;;
17983;SDS011;9117;52.420;20.728;2022-12-07T04:20:05;31.03;;;13.70;;
17983;SDS011;9117;52.420;20.728;2022-12-07T04:22:34;26.47;;;11.80;;
17983;SDS011;9117;52.420;20.728;2022-12-07T04:25:03;27.23;;;11.97;;
17983;SDS011;9117;52.420;20.728;2022-12-07T04:27:31;34.03;;;14.47;;
17983;SDS011;9117;52.420;20.728;2022-12-07T04:30:00;29.57;;;13.30;;
17983;SDS011;9117;52.420;20.728;2022-12-07T04:32:29;28.03;;;12.70;;
17983;SDS011;9117;52.420;20.728;2022-12-07T04:34:57;42.20;;;14.73;;
17983;SDS011;9117;52.420;20.728;2022-12-07T04:37:26;33.43;;;14.57;;
17983;SDS011;9117;52.420;20.728;2022-12-07T04:39:54;31.53;;;13.87;;
17983;SDS011;9117;52.420;20.728;2022-12-07T04:42:22;31.30;;;13.40;;
17983;SDS011;9117;52.420;20.728;2022-12-07T04:44:50;30.60;;;12.83;;
17983;SDS011;9117;52.420;20.728;2022-12-07T04:47:18;27.37;;;12.10;;
17983;SDS011;9117;52.420;20.728;2022-12-07T04:49:46;29.40;;;12.50;;
17983;SDS011;9117;52.420;20.728;2022-12-07T04:52:14;29.73;;;12.67;;
17983;SDS011;9117;52.420;20.728;2022-12-07T04:54:44;39.00;;;15.73;;
17983;SDS011;9117;52.420;20.728;2022-12-07T04:57:12;38.97;;;14.40;;
17983;SDS011;9117;52.420;20.728;2022-12-07T04:59:40;27.27;;;12.30;;
17983;SDS011;9117;52.420;20.728;2022-12-07T05:02:11;26.47;;;11.47;;
17983;SDS011;9117;52.420;20.728;2022-12-07T05:04:39;29.40;;;11.03;;
17983;SDS011;9117;52.420;20.728;2022-12-07T05:07:07;21.57;;;10.10;;
17983;SDS011;9117;52.420;20.728;2022-12-07T05:09:36;21.07;;;10.03;;
17983;SDS011;9117;52.420;20.728;2022-12-07T05:12:05;22.37;;;10.07;;
17983;SDS011;9117;52.420;20.728;2022-12-07T05:14:33;24.30;;;11.63;;
17983;SDS011;9117;52.420;20.728;2022-12-07T05:17:01;25.03;;;11.70;;
17983;SDS011;9117;52.420;20.728;2022-12-07T05:19:30;21.17;;;10.10;;
17983;SDS011;9117;52.420;20.728;2022-12-07T05:21:58;24.43;;;10.97;;
17983;SDS011;9117;52.420;20.728;2022-12-07T05:24:26;24.97;;;10.70;;
17983;SDS011;9117;52.420;20.728;2022-12-07T05:26:54;24.23;;;10.97;;
17983;SDS011;9117;52.420;20.728;2022-12-07T05:29:23;18.40;;;8.83;;
17983;SDS011;9117;52.420;20.728;2022-12-07T05:31:51;19.00;;;9.40;;
17983;SDS011;9117;52.420;20.728;2022-12-07T05:34:20;25.13;;;10.57;;
17983;SDS011;9117;52.420;20.728;2022-12-07T05:36:48;20.87;;;10.80;;
17983;SDS011;9117;52.420;20.728;2022-12-07T05:39:16;20.70;;;9.87;;
17983;SDS011;9117;52.420;20.728;2022-12-07T05:41:44;18.37;;;9.40;;
17983;SDS011;9117;52.420;20.728;2022-12-07T05:44:31;20.13;;;8.50;;
17983;SDS011;9117;52.420;20.728;2022-12-07T05:46:59;21.67;;;9.70;;
17983;SDS011;9117;52.420;20.728;2022-12-07T05:49:27;23.00;;;9.20;;
17983;SDS011;9117;52.420;20.728;2022-12-07T05:51:55;20.40;;;9.17;;
17983;SDS011;9117;52.420;20.728;2022-12-07T05:54:23;20.13;;;9.83;;
17983;SDS011;9117;52.420;20.728;2022-12-07T05:56:52;19.90;;;8.77;;
17983;SDS011;9117;52.420;20.728;2022-12-07T05:59:20;21.83;;;10.10;;
17983;SDS011;9117;52.420;20.728;2022-12-07T06:01:52;20.23;;;10.03;;
17983;SDS011;9117;52.420;20.728;2022-12-07T06:04:21;20.73;;;9.53;;
17983;SDS011;9117;52.420;20.728;2022-12-07T06:06:50;24.73;;;10.10;;
17983;SDS011;9117;52.420;20.728;2022-12-07T06:09:19;24.10;;;10.43;;
17983;SDS011;9117;52.420;20.728;2022-12-07T06:11:48;28.30;;;11.47;;
17983;SDS011;9117;52.420;20.728;2022-12-07T06:14:33;29.73;;;10.43;;
17983;SDS011;9117;52.420;20.728;2022-12-07T06:17:03;24.93;;;10.67;;
17983;SDS011;9117;52.420;20.728;2022-12-07T06:19:31;21.93;;;10.23;;
17983;SDS011;9117;52.420;20.728;2022-12-07T06:22:00;29.67;;;11.53;;
17983;SDS011;9117;52.420;20.728;2022-12-07T06:24:28;24.30;;;11.20;;
17983;SDS011;9117;52.420;20.728;2022-12-07T06:26:57;25.30;;;11.77;;
17983;SDS011;9117;52.420;20.728;2022-12-07T06:29:25;24.37;;;11.00;;
17983;SDS011;9117;52.420;20.728;2022-12-07T06:31:53;24.63;;;11.77;;
17983;SDS011;9117;52.420;20.728;2022-12-07T06:34:23;26.80;;;12.00;;
17983;SDS011;9117;52.420;20.728;2022-12-07T06:36:53;31.20;;;13.20;;
17983;SDS011;9117;52.420;20.728;2022-12-07T06:39:22;33.40;;;13.23;;
17983;SDS011;9117;52.420;20.728;2022-12-07T06:41:52;38.00;;;13.87;;
17983;SDS011;9117;52.420;20.728;2022-12-07T06:44:21;38.83;;;13.50;;
17983;SDS011;9117;52.420;20.728;2022-12-07T06:46:50;34.30;;;13.80;;
17983;SDS011;9117;52.420;20.728;2022-12-07T06:49:39;33.67;;;13.23;;
17983;SDS011;9117;52.420;20.728;2022-12-07T06:52:07;33.53;;;13.67;;
17983;SDS011;9117;52.420;20.728;2022-12-07T06:54:35;31.43;;;14.53;;
17983;SDS011;9117;52.420;20.728;2022-12-07T06:57:03;33.63;;;14.37;;
17983;SDS011;9117;52.420;20.728;2022-12-07T06:59:31;34.33;;;13.13;;
17983;SDS011;9117;52.420;20.728;2022-12-07T07:01:59;34.00;;;13.67;;
17983;SDS011;9117;52.420;20.728;2022-12-07T07:04:27;33.13;;;14.07;;
17983;SDS011;9117;52.420;20.728;2022-12-07T07:06:57;31.13;;;12.27;;
17983;SDS011;9117;52.420;20.728;2022-12-07T07:09:25;31.60;;;13.63;;
17983;SDS011;9117;52.420;20.728;2022-12-07T07:11:53;38.00;;;15.03;;
17983;SDS011;9117;52.420;20.728;2022-12-07T07:14:22;30.17;;;14.10;;
17983;SDS011;9117;52.420;20.728;2022-12-07T07:16:50;31.83;;;13.23;;
17983;SDS011;9117;52.420;20.728;2022-12-07T07:19:18;28.43;;;12.20;;
17983;SDS011;9117;52.420;20.728;2022-12-07T07:21:46;30.87;;;12.23;;
17983;SDS011;9117;52.420;20.728;2022-12-07T07:24:16;27.20;;;12.47;;
17983;SDS011;9117;52.420;20.728;2022-12-07T07:26:44;29.37;;;12.50;;
17983;SDS011;9117;52.420;20.728;2022-12-07T07:29:12;30.07;;;13.50;;
17983;SDS011;9117;52.420;20.728;2022-12-07T07:31:40;27.90;;;12.00;;
17983;SDS011;9117;52.420;20.728;2022-12-07T07:34:08;30.53;;;13.43;;
17983;SDS011;9117;52.420;20.728;2022-12-07T07:36:36;33.17;;;15.43;;
17983;SDS011;9117;52.420;20.728;2022-12-07T07:39:04;30.83;;;13.80;;
17983;SDS011;9117;52.420;20.728;2022-12-07T07:41:34;26.67;;;11.33;;
17983;SDS011;9117;52.420;20.728;2022-12-07T07:44:02;29.03;;;12.80;;
17983;SDS011;9117;52.420;20.728;2022-12-07T07:46:30;33.97;;;12.87;;
17983;SDS011;9117;52.420;20.728;2022-12-07T07:48:59;29.30;;;12.87;;
17983;SDS011;9117;52.420;20.728;2022-12-07T07:51:27;34.00;;;12.10;;
17983;SDS011;9117;52.420;20.728;2022-12-07T07:53:55;31.53;;;13.67;;
17983;SDS011;9117;52.420;20.728;2022-12-07T07:56:23;28.70;;;11.80;;
17983;SDS011;9117;52.420;20.728;2022-12-07T07:58:53;28.60;;;11.57;;
17983;SDS011;9117;52.420;20.728;2022-12-07T08:01:21;27.87;;;12.50;;
17983;SDS011;9117;52.420;20.728;2022-12-07T08:03:49;27.13;;;12.43;;
17983;SDS011;9117;52.420;20.728;2022-12-07T08:06:18;30.03;;;12.33;;
17983;SDS011;9117;52.420;20.728;2022-12-07T08:08:46;31.90;;;12.50;;
17983;SDS011;9117;52.420;20.728;2022-12-07T08:11:14;35.70;;;13.87;;
17983;SDS011;9117;52.420;20.728;2022-12-07T08:13:42;33.17;;;12.30;;
17983;SDS011;9117;52.420;20.728;2022-12-07T08:16:14;34.03;;;12.77;;
17983;SDS011;9117;52.420;20.728;2022-12-07T08:18:43;38.57;;;14.53;;
17983;SDS011;9117;52.420;20.728;2022-12-07T08:21:11;37.37;;;14.13;;
17983;SDS011;9117;52.420;20.728;2022-12-07T08:23:41;36.10;;;14.10;;
17983;SDS011;9117;52.420;20.728;2022-12-07T08:26:10;31.83;;;12.93;;
17983;SDS011;9117;52.420;20.728;2022-12-07T08:28:40;34.67;;;12.70;;
17983;SDS011;9117;52.420;20.728;2022-12-07T08:31:10;42.70;;;14.77;;
17983;SDS011;9117;52.420;20.728;2022-12-07T08:33:41;39.00;;;14.77;;
17983;SDS011;9117;52.420;20.728;2022-12-07T08:36:12;41.57;;;15.97;;
17983;SDS011;9117;52.420;20.728;2022-12-07T08:38:41;37.93;;;13.53;;
17983;SDS011;9117;52.420;20.728;2022-12-07T08:41:29;42.00;;;14.23;;
17983;SDS011;9117;52.420;20.728;2022-12-07T08:43:57;40.40;;;14.50;;
17983;SDS011;9117;52.420;20.728;2022-12-07T08:46:26;41.53;;;14.63;;
17983;SDS011;9117;52.420;20.728;2022-12-07T08:49:03;45.07;;;15.93;;
17983;SDS011;9117;52.420;20.728;2022-12-07T08:51:35;47.70;;;15.63;;
17983;SDS011;9117;52.420;20.728;2022-12-07T08:54:04;43.47;;;14.97;;
17983;SDS011;9117;52.420;20.728;2022-12-07T08:56:34;44.30;;;18.10;;
17983;SDS011;9117;52.420;20.728;2022-12-07T08:59:03;43.00;;;14.57;;
17983;SDS011;9117;52.420;20.728;2022-12-07T09:01:33;43.37;;;17.03;;
17983;SDS011;9117;52.420;20.728;2022-12-07T09:04:03;43.13;;;15.47;;
17983;SDS011;9117;52.420;20.728;2022-12-07T09:08:21;42.27;;;13.53;;
17983;SDS011;9117;52.420;20.728;2022-12-07T09:10:51;41.60;;;14.20;;
17983;SDS011;9117;52.420;20.728;2022-12-07T09:13:19;44.77;;;14.23;;
17983;SDS011;9117;52.420;20.728;2022-12-07T09:15:47;37.97;;;13.73;;
17983;SDS011;9117;52.420;20.728;2022-12-07T09:18:15;46.93;;;15.37;;
17983;SDS011;9117;52.420;20.728;2022-12-07T09:20:43;39.33;;;13.67;;
17983;SDS011;9117;52.420;20.728;2022-12-07T09:23:11;37.13;;;13.73;;
17983;SDS011;9117;52.420;20.728;2022-12-07T09:25:41;32.23;;;12.60;;
17983;SDS011;9117;52.420;20.728;2022-12-07T09:28:09;35.30;;;13.77;;
17983;SDS011;9117;52.420;20.728;2022-12-07T09:30:37;28.57;;;11.47;;
17983;SDS011;9117;52.420;20.728;2022-12-07T09:33:25;31.33;;;11.13;;
17983;SDS011;9117;52.420;20.728;2022-12-07T09:35:53;27.50;;;9.93;;
17983;SDS011;9117;52.420;20.728;2022-12-07T09:38:22;27.57;;;9.37;;
17983;SDS011;9117;52.420;20.728;2022-12-07T09:40:54;23.73;;;8.73;;
17983;SDS011;9117;52.420;20.728;2022-12-07T09:43:23;27.10;;;10.47;;
17983;SDS011;9117;52.420;20.728;2022-12-07T09:45:53;28.77;;;9.57;;
17983;SDS011;9117;52.420;20.728;2022-12-07T09:48:28;29.73;;;11.37;;
17983;SDS011;9117;52.420;20.728;2022-12-07T09:50:59;22.03;;;8.43;;
17983;SDS011;9117;52.420;20.728;2022-12-07T09:53:30;22.70;;;9.80;;
17983;SDS011;9117;52.420;20.728;2022-12-07T09:56:03;21.57;;;8.93;;
17983;SDS011;9117;52.420;20.728;2022-12-07T09:58:32;24.80;;;9.07;;
17983;SDS011;9117;52.420;20.728;2022-12-07T10:01:05;26.67;;;8.87;;
17983;SDS011;9117;52.420;20.728;2022-12-07T10:03:39;21.67;;;8.60;;
17983;SDS011;9117;52.420;20.728;2022-12-07T10:06:11;21.27;;;7.80;;
17983;SDS011;9117;52.420;20.728;2022-12-07T10:08:40;27.87;;;9.90;;
17983;SDS011;9117;52.420;20.728;2022-12-07T10:11:11;25.70;;;9.77;;
17983;SDS011;9117;52.420;20.728;2022-12-07T10:13:41;26.70;;;9.90;;
17983;SDS011;9117;52.420;20.728;2022-12-07T10:16:26;24.07;;;8.27;;
17983;SDS011;9117;52.420;20.728;2022-12-07T10:19:03;23.83;;;8.40;;
17983;SDS011;9117;52.420;20.728;2022-12-07T10:21:59;21.70;;;7.70;;
17983;SDS011;9117;52.420;20.728;2022-12-07T10:24:32;27.17;;;10.10;;
17983;SDS011;9117;52.420;20.728;2022-12-07T10:27:02;25.00;;;8.20;;
17983;SDS011;9117;52.420;20.728;2022-12-07T10:29:31;24.40;;;9.03;;
17983;SDS011;9117;52.420;20.728;2022-12-07T10:32:02;19.87;;;8.00;;
17983;SDS011;9117;52.420;20.728;2022-12-07T10:34:33;25.70;;;10.30;;
17983;SDS011;9117;52.420;20.728;2022-12-07T10:37:15;20.67;;;8.63;;
17983;SDS011;9117;52.420;20.728;2022-12-07T10:39:45;22.00;;;8.67;;
17983;SDS011;9117;52.420;20.728;2022-12-07T10:42:19;20.70;;;7.97;;
17983;SDS011;9117;52.420;20.728;2022-12-07T10:44:49;29.43;;;10.03;;
17983;SDS011;9117;52.420;20.728;2022-12-07T10:47:36;22.43;;;9.30;;
17983;SDS011;9117;52.420;20.728;2022-12-07T10:50:17;22.73;;;8.87;;
17983;SDS011;9117;52.420;20.728;2022-12-07T10:53:13;18.87;;;8.83;;
17983;SDS011;9117;52.420;20.728;2022-12-07T10:56:11;22.53;;;8.97;;
17983;SDS011;9117;52.420;20.728;2022-12-07T10:58:57;22.20;;;8.60;;
17983;SDS011;9117;52.420;20.728;2022-12-07T11:01:39;17.60;;;7.80;;
17983;SDS011;9117;52.420;20.728;2022-12-07T11:04:16;21.30;;;8.77;;
17983;SDS011;9117;52.420;20.728;2022-12-07T11:06:51;18.73;;;7.87;;
17983;SDS011;9117;52.420;20.728;2022-12-07T11:09:34;18.07;;;8.40;;
17983;SDS011;9117;52.420;20.728;2022-12-07T11:12:47;16.83;;;8.17;;
17983;SDS011;9117;52.420;20.728;2022-12-07T11:15:39;25.07;;;9.23;;
17983;SDS011;9117;52.420;20.728;2022-12-07T11:18:20;19.00;;;8.70;;
17983;SDS011;9117;52.420;20.728;2022-12-07T11:20:51;23.55;;;11.50;;
17983;SDS011;9117;52.420;20.728;2022-12-07T11:23:23;26.83;;;12.40;;
17983;SDS011;9117;52.420;20.728;2022-12-07T11:26:05;26.27;;;11.47;;
17983;SDS011;9117;52.420;20.728;2022-12-07T11:28:48;25.03;;;10.90;;
17983;SDS011;9117;52.420;20.728;2022-12-07T11:31:35;21.97;;;10.60;;
17983;SDS011;9117;52.420;20.728;2022-12-07T11:34:13;18.83;;;8.43;;
17983;SDS011;9117;52.420;20.728;2022-12-07T11:36:47;20.23;;;9.23;;
17983;SDS011;9117;52.420;20.728;2022-12-07T11:39:22;24.40;;;11.27;;
17983;SDS011;9117;52.420;20.728;2022-12-07T11:41:54;22.63;;;10.83;;
17983;SDS011;9117;52.420;20.728;2022-12-07T11:44:30;25.00;;;11.57;;
17983;SDS011;9117;52.420;20.728;2022-12-07T11:47:06;23.97;;;11.87;;
17983;SDS011;9117;52.420;20.728;2022-12-07T11:49:40;28.37;;;13.30;;
17983;SDS011;9117;52.420;20.728;2022-12-07T11:52:14;29.33;;;14.47;;
17983;SDS011;9117;52.420;20.728;2022-12-07T11:54:44;26.87;;;12.83;;
17983;SDS011;9117;52.420;20.728;2022-12-07T11:57:15;27.83;;;15.40;;
17983;SDS011;9117;52.420;20.728;2022-12-07T11:59:48;25.17;;;11.43;;
17983;SDS011;9117;52.420;20.728;2022-12-07T12:02:22;21.90;;;11.53;;
17983;SDS011;9117;52.420;20.728;2022-12-07T12:04:55;23.90;;;11.93;;
17983;SDS011;9117;52.420;20.728;2022-12-07T12:07:30;27.57;;;12.93;;
17983;SDS011;9117;52.420;20.728;2022-12-07T12:10:21;27.00;;;12.20;;
17983;SDS011;9117;52.420;20.728;2022-12-07T12:13:00;26.93;;;11.23;;
17983;SDS011;9117;52.420;20.728;2022-12-07T12:16:08;24.83;;;11.83;;
17983;SDS011;9117;52.420;20.728;2022-12-07T12:19:05;28.63;;;13.90;;
17983;SDS011;9117;52.420;20.728;2022-12-07T12:21:45;22.63;;;10.60;;
17983;SDS011;9117;52.420;20.728;2022-12-07T12:24:20;29.53;;;11.33;;
17983;SDS011;9117;52.420;20.728;2022-12-07T12:26:52;19.50;;;10.17;;
17983;SDS011;9117;52.420;20.728;2022-12-07T12:29:26;24.57;;;11.03;;
17983;SDS011;9117;52.420;20.728;2022-12-07T12:32:06;20.63;;;10.93;;
17983;SDS011;9117;52.420;20.728;2022-12-07T12:34:57;23.93;;;10.40;;
17983;SDS011;9117;52.420;20.728;2022-12-07T12:37:43;20.27;;;10.07;;
17983;SDS011;9117;52.420;20.728;2022-12-07T12:58:35;19.63;;;9.63;;
17983;SDS011;9117;52.420;20.728;2022-12-07T13:04:16;16.47;;;8.00;;
17983;SDS011;9117;52.420;20.728;2022-12-07T13:06:55;20.17;;;10.10;;
17983;SDS011;9117;52.420;20.728;2022-12-07T13:09:24;17.10;;;9.37;;
17983;SDS011;9117;52.420;20.728;2022-12-07T13:11:56;16.50;;;8.10;;
17983;SDS011;9117;52.420;20.728;2022-12-07T13:20:42;19.38;;;10.02;;
17983;SDS011;9117;52.420;20.728;2022-12-07T13:23:13;19.03;;;10.17;;
17983;SDS011;9117;52.420;20.728;2022-12-07T13:25:51;22.70;;;10.70;;
17983;SDS011;9117;52.420;20.728;2022-12-07T13:28:25;19.80;;;11.10;;
17983;SDS011;9117;52.420;20.728;2022-12-07T13:31:11;18.30;;;10.17;;
17983;SDS011;9117;52.420;20.728;2022-12-07T13:33:47;19.37;;;9.43;;
17983;SDS011;9117;52.420;20.728;2022-12-07T13:36:17;21.63;;;9.47;;
17983;SDS011;9117;52.420;20.728;2022-12-07T13:38:51;21.30;;;9.23;;
17983;SDS011;9117;52.420;20.728;2022-12-07T13:41:22;23.30;;;10.13;;
17983;SDS011;9117;52.420;20.728;2022-12-07T13:43:53;23.33;;;10.07;;
17983;SDS011;9117;52.420;20.728;2022-12-07T13:46:32;21.53;;;9.77;;
17983;SDS011;9117;52.420;20.728;2022-12-07T13:49:16;23.70;;;10.30;;
17983;SDS011;9117;52.420;20.728;2022-12-07T13:51:47;23.47;;;9.90;;
17983;SDS011;9117;52.420;20.728;2022-12-07T13:54:17;24.50;;;10.73;;
17983;SDS011;9117;52.420;20.728;2022-12-07T13:56:49;27.92;;;14.23;;
17983;SDS011;9117;52.420;20.728;2022-12-07T13:59:19;27.73;;;12.30;;
17983;SDS011;9117;52.420;20.728;2022-12-07T14:01:50;27.47;;;11.50;;
17983;SDS011;9117;52.420;20.728;2022-12-07T14:04:27;26.33;;;13.83;;
17983;SDS011;9117;52.420;20.728;2022-12-07T14:06:59;27.30;;;12.37;;
17983;SDS011;9117;52.420;20.728;2022-12-07T14:09:30;21.97;;;10.17;;
17983;SDS011;9117;52.420;20.728;2022-12-07T14:11:58;25.97;;;12.23;;
17983;SDS011;9117;52.420;20.728;2022-12-07T14:14:32;26.43;;;12.57;;
17983;SDS011;9117;52.420;20.728;2022-12-07T14:17:09;27.33;;;12.47;;
17983;SDS011;9117;52.420;20.728;2022-12-07T14:19:52;30.67;;;13.50;;
17983;SDS011;9117;52.420;20.728;2022-12-07T14:22:26;34.50;;;16.83;;
17983;SDS011;9117;52.420;20.728;2022-12-07T14:25:09;30.07;;;15.33;;
17983;SDS011;9117;52.420;20.728;2022-12-07T14:27:53;27.27;;;13.40;;
17983;SDS011;9117;52.420;20.728;2022-12-07T14:30:24;27.03;;;12.53;;
17983;SDS011;9117;52.420;20.728;2022-12-07T14:32:55;30.17;;;13.80;;
17983;SDS011;9117;52.420;20.728;2022-12-07T14:35:26;30.47;;;14.43;;
17983;SDS011;9117;52.420;20.728;2022-12-07T14:37:55;29.90;;;14.03;;
17983;SDS011;9117;52.420;20.728;2022-12-07T14:40:25;35.07;;;13.43;;
17983;SDS011;9117;52.420;20.728;2022-12-07T14:42:56;24.87;;;12.30;;
17983;SDS011;9117;52.420;20.728;2022-12-07T14:45:27;28.20;;;12.97;;
17983;SDS011;9117;52.420;20.728;2022-12-07T14:47:55;31.23;;;13.70;;
17983;SDS011;9117;52.420;20.728;2022-12-07T14:50:44;32.30;;;13.77;;
17983;SDS011;9117;52.420;20.728;2022-12-07T14:53:37;29.57;;;13.27;;
17983;SDS011;9117;52.420;20.728;2022-12-07T14:56:12;31.80;;;14.07;;
17983;SDS011;9117;52.420;20.728;2022-12-07T14:58:40;32.70;;;13.60;;
17983;SDS011;9117;52.420;20.728;2022-12-07T15:01:08;34.10;;;13.63;;
17983;SDS011;9117;52.420;20.728;2022-12-07T15:03:36;30.53;;;13.03;;
17983;SDS011;9117;52.420;20.728;2022-12-07T15:06:05;33.70;;;13.23;;
17983;SDS011;9117;52.420;20.728;2022-12-07T15:08:34;31.03;;;13.20;;
17983;SDS011;9117;52.420;20.728;2022-12-07T15:11:02;31.97;;;13.20;;
17983;SDS011;9117;52.420;20.728;2022-12-07T15:13:32;32.88;;;14.18;;
17983;SDS011;9117;52.420;20.728;2022-12-07T15:16:18;30.77;;;13.33;;
17983;SDS011;9117;52.420;20.728;2022-12-07T15:18:47;31.80;;;12.80;;
17983;SDS011;9117;52.420;20.728;2022-12-07T15:21:36;30.20;;;13.07;;
17983;SDS011;9117;52.420;20.728;2022-12-07T15:24:04;29.37;;;11.67;;